sensor_id;sensor_type;location;lat;lon;timestamp;P1;durP1;ratioP1;P2;durP2;ratioP2
17796;SDS011;55596;53.554;9.916;2023-11-19T00:00:54;17.00;;;12.30;;
17796;SDS011;55596;53.554;9.916;2023-11-19T00:03:22;17.73;;;11.33;;
17796;SDS011;55596;53.554;9.916;2023-11-19T00:05:49;19.00;;;11.50;;
17796;SDS011;55596;53.554;9.916;2023-11-19T00:08:16;18.10;;;11.93;;
17796;SDS011;55596;53.554;9.916;2023-11-19T00:10:43;17.50;;;11.27;;
17796;SDS011;55596;53.554;9.916;2023-11-19T00:13:11;17.77;;;11.70;;
17796;SDS011;55596;53.554;9.916;2023-11-19T00:15:38;14.33;;;10.30;;
17796;SDS011;55596;53.554;9.916;2023-11-19T00:18:07;18.13;;;10.83;;
17796;SDS011;55596;53.554;9.916;2023-11-19T00:20:34;15.87;;;10.40;;
17796;SDS011;55596;53.554;9.916;2023-11-19T00:23:01;17.33;;;11.00;;
17796;SDS011;55596;53.554;9.916;2023-11-19T00:25:28;15.53;;;10.20;;
17796;SDS011;55596;53.554;9.916;2023-11-19T00:27:55;16.13;;;10.17;;
17796;SDS011;55596;53.554;9.916;2023-11-19T00:30:22;12.60;;;9.67;;
17796;SDS011;55596;53.554;9.916;2023-11-19T00:32:50;11.90;;;8.80;;
17796;SDS011;55596;53.554;9.916;2023-11-19T00:35:19;11.73;;;8.53;;
17796;SDS011;55596;53.554;9.916;2023-11-19T00:37:47;11.90;;;8.43;;
17796;SDS011;55596;53.554;9.916;2023-11-19T00:40:14;10.80;;;8.33;;
17796;SDS011;55596;53.554;9.916;2023-11-19T00:42:43;11.03;;;8.30;;
17796;SDS011;55596;53.554;9.916;2023-11-19T00:45:10;10.37;;;8.50;;
17796;SDS011;55596;53.554;9.916;2023-11-19T00:47:38;10.67;;;7.97;;
17796;SDS011;55596;53.554;9.916;2023-11-19T00:50:05;11.77;;;8.43;;
17796;SDS011;55596;53.554;9.916;2023-11-19T00:52:35;12.73;;;8.40;;
17796;SDS011;55596;53.554;9.916;2023-11-19T00:55:03;10.73;;;7.33;;
17796;SDS011;55596;53.554;9.916;2023-11-19T00:57:31;11.07;;;7.77;;
17796;SDS011;55596;53.554;9.916;2023-11-19T00:59:59;10.37;;;6.83;;
17796;SDS011;55596;53.554;9.916;2023-11-19T01:02:26;8.83;;;7.03;;
17796;SDS011;55596;53.554;9.916;2023-11-19T01:04:54;10.50;;;7.20;;
17796;SDS011;55596;53.554;9.916;2023-11-19T01:07:21;10.27;;;7.80;;
17796;SDS011;55596;53.554;9.916;2023-11-19T01:09:54;8.20;;;6.80;;
17796;SDS011;55596;53.554;9.916;2023-11-19T01:12:21;10.67;;;6.80;;
17796;SDS011;55596;53.554;9.916;2023-11-19T01:14:48;10.90;;;7.03;;
17796;SDS011;55596;53.554;9.916;2023-11-19T01:17:17;10.60;;;6.33;;
17796;SDS011;55596;53.554;9.916;2023-11-19T01:19:44;8.43;;;5.93;;
17796;SDS011;55596;53.554;9.916;2023-11-19T01:22:11;7.00;;;5.53;;
17796;SDS011;55596;53.554;9.916;2023-11-19T01:24:38;6.20;;;5.03;;
17796;SDS011;55596;53.554;9.916;2023-11-19T01:27:09;5.27;;;4.67;;
17796;SDS011;55596;53.554;9.916;2023-11-19T01:29:37;6.73;;;5.23;;
17796;SDS011;55596;53.554;9.916;2023-11-19T01:32:04;6.70;;;4.90;;
17796;SDS011;55596;53.554;9.916;2023-11-19T01:34:32;5.60;;;4.77;;
17796;SDS011;55596;53.554;9.916;2023-11-19T01:36:59;6.27;;;4.67;;
17796;SDS011;55596;53.554;9.916;2023-11-19T01:39:26;6.03;;;4.70;;
17796;SDS011;55596;53.554;9.916;2023-11-19T01:41:53;5.20;;;4.70;;
17796;SDS011;55596;53.554;9.916;2023-11-19T01:44:22;4.77;;;4.20;;
17796;SDS011;55596;53.554;9.916;2023-11-19T01:46:49;5.73;;;4.40;;
17796;SDS011;55596;53.554;9.916;2023-11-19T01:49:17;4.63;;;3.83;;
17796;SDS011;55596;53.554;9.916;2023-11-19T01:51:44;3.77;;;3.20;;
17796;SDS011;55596;53.554;9.916;2023-11-19T01:54:12;4.10;;;3.53;;
17796;SDS011;55596;53.554;9.916;2023-11-19T01:56:40;4.20;;;3.03;;
17796;SDS011;55596;53.554;9.916;2023-11-19T01:59:07;4.10;;;3.70;;
17796;SDS011;55596;53.554;9.916;2023-11-19T02:01:37;3.10;;;2.90;;
17796;SDS011;55596;53.554;9.916;2023-11-19T02:04:05;3.10;;;2.80;;
17796;SDS011;55596;53.554;9.916;2023-11-19T02:06:32;3.60;;;2.90;;
17796;SDS011;55596;53.554;9.916;2023-11-19T02:09:00;3.07;;;2.77;;
17796;SDS011;55596;53.554;9.916;2023-11-19T02:11:32;3.23;;;2.93;;
17796;SDS011;55596;53.554;9.916;2023-11-19T02:14:00;3.87;;;3.30;;
17796;SDS011;55596;53.554;9.916;2023-11-19T02:16:28;2.80;;;2.60;;
17796;SDS011;55596;53.554;9.916;2023-11-19T02:18:57;3.77;;;3.13;;
17796;SDS011;55596;53.554;9.916;2023-11-19T02:21:24;3.07;;;2.70;;
17796;SDS011;55596;53.554;9.916;2023-11-19T02:23:51;3.50;;;3.17;;
17796;SDS011;55596;53.554;9.916;2023-11-19T02:26:20;3.47;;;2.83;;
17796;SDS011;55596;53.554;9.916;2023-11-19T02:28:54;4.40;;;3.47;;
17796;SDS011;55596;53.554;9.916;2023-11-19T02:31:22;4.43;;;2.80;;
17796;SDS011;55596;53.554;9.916;2023-11-19T02:33:49;3.10;;;2.80;;
17796;SDS011;55596;53.554;9.916;2023-11-19T02:36:16;2.70;;;2.50;;
17796;SDS011;55596;53.554;9.916;2023-11-19T02:38:44;3.43;;;3.13;;
17796;SDS011;55596;53.554;9.916;2023-11-19T02:41:11;4.33;;;3.40;;
17796;SDS011;55596;53.554;9.916;2023-11-19T02:43:39;3.90;;;3.57;;
17796;SDS011;55596;53.554;9.916;2023-11-19T02:46:07;3.53;;;3.23;;
17796;SDS011;55596;53.554;9.916;2023-11-19T02:48:36;3.63;;;3.27;;
17796;SDS011;55596;53.554;9.916;2023-11-19T02:51:03;4.17;;;3.87;;
17796;SDS011;55596;53.554;9.916;2023-11-19T02:53:31;4.53;;;4.07;;
17796;SDS011;55596;53.554;9.916;2023-11-19T02:55:58;4.00;;;3.70;;
17796;SDS011;55596;53.554;9.916;2023-11-19T02:58:34;6.73;;;4.00;;
17796;SDS011;55596;53.554;9.916;2023-11-19T03:01:02;4.37;;;4.07;;
17796;SDS011;55596;53.554;9.916;2023-11-19T03:03:39;4.90;;;4.40;;
17796;SDS011;55596;53.554;9.916;2023-11-19T03:06:07;4.67;;;4.27;;
17796;SDS011;55596;53.554;9.916;2023-11-19T03:08:35;4.77;;;4.37;;
17796;SDS011;55596;53.554;9.916;2023-11-19T03:11:02;5.23;;;4.27;;
17796;SDS011;55596;53.554;9.916;2023-11-19T03:13:30;4.27;;;3.87;;
17796;SDS011;55596;53.554;9.916;2023-11-19T03:15:57;4.10;;;3.70;;
17796;SDS011;55596;53.554;9.916;2023-11-19T03:18:25;3.93;;;3.63;;
17796;SDS011;55596;53.554;9.916;2023-11-19T03:20:54;3.97;;;3.67;;
17796;SDS011;55596;53.554;9.916;2023-11-19T03:23:23;4.23;;;3.93;;
17796;SDS011;55596;53.554;9.916;2023-11-19T03:25:53;5.93;;;4.00;;
17796;SDS011;55596;53.554;9.916;2023-11-19T03:28:22;4.70;;;4.30;;
17796;SDS011;55596;53.554;9.916;2023-11-19T03:30:51;5.20;;;4.70;;
17796;SDS011;55596;53.554;9.916;2023-11-19T03:33:18;6.60;;;4.33;;
17796;SDS011;55596;53.554;9.916;2023-11-19T03:35:46;5.60;;;5.00;;
17796;SDS011;55596;53.554;9.916;2023-11-19T03:38:18;6.90;;;4.80;;
17796;SDS011;55596;53.554;9.916;2023-11-19T03:40:53;5.57;;;5.07;;
17796;SDS011;55596;53.554;9.916;2023-11-19T03:43:22;6.93;;;5.20;;
17796;SDS011;55596;53.554;9.916;2023-11-19T03:45:50;6.10;;;5.50;;
17796;SDS011;55596;53.554;9.916;2023-11-19T03:48:25;5.67;;;5.10;;
17796;SDS011;55596;53.554;9.916;2023-11-19T03:51:00;7.20;;;5.13;;
17796;SDS011;55596;53.554;9.916;2023-11-19T03:53:29;5.50;;;4.70;;
17796;SDS011;55596;53.554;9.916;2023-11-19T03:55:57;5.43;;;4.93;;
17796;SDS011;55596;53.554;9.916;2023-11-19T03:58:24;9.13;;;5.10;;
17796;SDS011;55596;53.554;9.916;2023-11-19T04:00:51;7.60;;;5.33;;
17796;SDS011;55596;53.554;9.916;2023-11-19T04:03:18;6.60;;;6.00;;
17796;SDS011;55596;53.554;9.916;2023-11-19T04:05:49;7.40;;;6.27;;
17796;SDS011;55596;53.554;9.916;2023-11-19T04:08:18;7.83;;;7.03;;
17796;SDS011;55596;53.554;9.916;2023-11-19T04:10:52;9.73;;;7.40;;
17796;SDS011;55596;53.554;9.916;2023-11-19T04:13:22;10.27;;;6.67;;
17796;SDS011;55596;53.554;9.916;2023-11-19T04:15:49;10.07;;;7.47;;
17796;SDS011;55596;53.554;9.916;2023-11-19T04:18:19;10.63;;;7.90;;
17796;SDS011;55596;53.554;9.916;2023-11-19T04:20:52;10.30;;;8.10;;
17796;SDS011;55596;53.554;9.916;2023-11-19T04:23:19;10.13;;;8.30;;
17796;SDS011;55596;53.554;9.916;2023-11-19T04:25:46;11.17;;;9.00;;
17796;SDS011;55596;53.554;9.916;2023-11-19T04:28:15;10.90;;;8.30;;
17796;SDS011;55596;53.554;9.916;2023-11-19T04:30:42;12.63;;;8.53;;
17796;SDS011;55596;53.554;9.916;2023-11-19T04:33:10;14.90;;;8.70;;
17796;SDS011;55596;53.554;9.916;2023-11-19T04:35:37;14.73;;;9.50;;
17796;SDS011;55596;53.554;9.916;2023-11-19T04:38:04;15.60;;;9.60;;
17796;SDS011;55596;53.554;9.916;2023-11-19T04:40:32;12.80;;;9.33;;
17796;SDS011;55596;53.554;9.916;2023-11-19T04:42:59;18.57;;;10.10;;
17796;SDS011;55596;53.554;9.916;2023-11-19T04:45:27;16.10;;;10.10;;
17796;SDS011;55596;53.554;9.916;2023-11-19T04:47:55;15.57;;;10.00;;
17796;SDS011;55596;53.554;9.916;2023-11-19T04:50:22;15.90;;;11.50;;
17796;SDS011;55596;53.554;9.916;2023-11-19T04:52:51;21.83;;;12.47;;
17796;SDS011;55596;53.554;9.916;2023-11-19T04:55:18;23.77;;;14.53;;
17796;SDS011;55596;53.554;9.916;2023-11-19T04:57:46;24.67;;;14.80;;
17796;SDS011;55596;53.554;9.916;2023-11-19T05:00:14;28.13;;;17.43;;
17796;SDS011;55596;53.554;9.916;2023-11-19T05:02:42;29.90;;;16.80;;
17796;SDS011;55596;53.554;9.916;2023-11-19T05:05:09;35.80;;;18.23;;
17796;SDS011;55596;53.554;9.916;2023-11-19T05:07:37;33.80;;;18.63;;
17796;SDS011;55596;53.554;9.916;2023-11-19T05:10:04;37.87;;;19.07;;
17796;SDS011;55596;53.554;9.916;2023-11-19T05:12:32;38.73;;;22.20;;
17796;SDS011;55596;53.554;9.916;2023-11-19T05:14:59;45.60;;;23.83;;
17796;SDS011;55596;53.554;9.916;2023-11-19T05:17:26;56.47;;;25.07;;
17796;SDS011;55596;53.554;9.916;2023-11-19T05:19:55;91.77;;;27.97;;
17796;SDS011;55596;53.554;9.916;2023-11-19T05:22:22;57.97;;;26.87;;
17796;SDS011;55596;53.554;9.916;2023-11-19T05:24:49;134.07;;;32.57;;
17796;SDS011;55596;53.554;9.916;2023-11-19T05:27:16;65.60;;;29.00;;
17796;SDS011;55596;53.554;9.916;2023-11-19T05:29:43;65.57;;;28.67;;
17796;SDS011;55596;53.554;9.916;2023-11-19T05:32:10;59.87;;;28.83;;
17796;SDS011;55596;53.554;9.916;2023-11-19T05:34:37;64.00;;;29.50;;
17796;SDS011;55596;53.554;9.916;2023-11-19T05:37:06;55.43;;;29.47;;
17796;SDS011;55596;53.554;9.916;2023-11-19T05:39:35;61.87;;;30.30;;
17796;SDS011;55596;53.554;9.916;2023-11-19T05:42:03;63.77;;;30.80;;
17796;SDS011;55596;53.554;9.916;2023-11-19T05:44:30;64.43;;;30.50;;
17796;SDS011;55596;53.554;9.916;2023-11-19T05:46:57;62.83;;;30.23;;
17796;SDS011;55596;53.554;9.916;2023-11-19T05:49:24;64.63;;;31.50;;
17796;SDS011;55596;53.554;9.916;2023-11-19T05:51:51;64.03;;;30.77;;
17796;SDS011;55596;53.554;9.916;2023-11-19T05:54:22;68.97;;;31.33;;
17796;SDS011;55596;53.554;9.916;2023-11-19T05:56:49;75.53;;;31.03;;
17796;SDS011;55596;53.554;9.916;2023-11-19T05:59:19;68.10;;;31.30;;
17796;SDS011;55596;53.554;9.916;2023-11-19T06:01:48;59.33;;;29.57;;
17796;SDS011;55596;53.554;9.916;2023-11-19T06:04:15;65.20;;;31.40;;
17796;SDS011;55596;53.554;9.916;2023-11-19T06:06:42;71.47;;;30.90;;
17796;SDS011;55596;53.554;9.916;2023-11-19T06:09:09;67.03;;;31.07;;
17796;SDS011;55596;53.554;9.916;2023-11-19T06:11:39;70.67;;;30.77;;
17796;SDS011;55596;53.554;9.916;2023-11-19T06:14:06;67.33;;;30.33;;
17796;SDS011;55596;53.554;9.916;2023-11-19T06:16:33;68.77;;;29.77;;
17796;SDS011;55596;53.554;9.916;2023-11-19T06:19:01;67.93;;;28.70;;
17796;SDS011;55596;53.554;9.916;2023-11-19T06:21:29;67.00;;;28.47;;
17796;SDS011;55596;53.554;9.916;2023-11-19T06:23:56;63.50;;;27.50;;
17796;SDS011;55596;53.554;9.916;2023-11-19T06:26:24;67.90;;;27.47;;
17796;SDS011;55596;53.554;9.916;2023-11-19T06:28:52;59.23;;;24.47;;
17796;SDS011;55596;53.554;9.916;2023-11-19T06:31:20;64.93;;;25.87;;
17796;SDS011;55596;53.554;9.916;2023-11-19T06:33:47;65.37;;;24.33;;
17796;SDS011;55596;53.554;9.916;2023-11-19T06:36:14;73.47;;;24.00;;
17796;SDS011;55596;53.554;9.916;2023-11-19T06:38:42;72.57;;;23.63;;
17796;SDS011;55596;53.554;9.916;2023-11-19T06:41:09;59.70;;;22.70;;
17796;SDS011;55596;53.554;9.916;2023-11-19T06:43:36;53.63;;;21.33;;
17796;SDS011;55596;53.554;9.916;2023-11-19T06:46:05;60.93;;;22.97;;
17796;SDS011;55596;53.554;9.916;2023-11-19T06:48:32;59.40;;;21.97;;
17796;SDS011;55596;53.554;9.916;2023-11-19T06:51:00;55.03;;;21.17;;
17796;SDS011;55596;53.554;9.916;2023-11-19T06:53:27;53.80;;;21.67;;
17796;SDS011;55596;53.554;9.916;2023-11-19T06:55:54;64.17;;;20.30;;
17796;SDS011;55596;53.554;9.916;2023-11-19T06:58:22;50.90;;;17.53;;
17796;SDS011;55596;53.554;9.916;2023-11-19T07:00:49;43.93;;;18.13;;
17796;SDS011;55596;53.554;9.916;2023-11-19T07:03:18;57.43;;;17.97;;
17796;SDS011;55596;53.554;9.916;2023-11-19T07:05:46;58.97;;;17.70;;
17796;SDS011;55596;53.554;9.916;2023-11-19T07:08:13;50.03;;;16.57;;
17796;SDS011;55596;53.554;9.916;2023-11-19T07:10:40;43.90;;;15.67;;
17796;SDS011;55596;53.554;9.916;2023-11-19T07:13:08;51.63;;;16.20;;
17796;SDS011;55596;53.554;9.916;2023-11-19T07:15:34;45.23;;;14.20;;
17796;SDS011;55596;53.554;9.916;2023-11-19T07:18:02;55.33;;;15.73;;
17796;SDS011;55596;53.554;9.916;2023-11-19T07:20:30;49.60;;;13.60;;
17796;SDS011;55596;53.554;9.916;2023-11-19T07:22:58;50.37;;;12.50;;
17796;SDS011;55596;53.554;9.916;2023-11-19T07:25:25;50.60;;;11.73;;
17796;SDS011;55596;53.554;9.916;2023-11-19T07:27:52;46.97;;;11.90;;
17796;SDS011;55596;53.554;9.916;2023-11-19T07:30:19;49.40;;;11.60;;
17796;SDS011;55596;53.554;9.916;2023-11-19T07:32:47;45.53;;;10.33;;
17796;SDS011;55596;53.554;9.916;2023-11-19T07:35:14;38.67;;;8.97;;
17796;SDS011;55596;53.554;9.916;2023-11-19T07:37:43;41.63;;;8.50;;
17796;SDS011;55596;53.554;9.916;2023-11-19T07:40:11;45.10;;;9.43;;
17796;SDS011;55596;53.554;9.916;2023-11-19T07:42:39;58.60;;;11.27;;
17796;SDS011;55596;53.554;9.916;2023-11-19T07:45:06;47.30;;;11.60;;
17796;SDS011;55596;53.554;9.916;2023-11-19T07:47:33;43.30;;;10.37;;
17796;SDS011;55596;53.554;9.916;2023-11-19T07:50:01;50.10;;;10.23;;
17796;SDS011;55596;53.554;9.916;2023-11-19T07:52:28;43.43;;;10.43;;
17796;SDS011;55596;53.554;9.916;2023-11-19T07:54:57;46.87;;;10.87;;
17796;SDS011;55596;53.554;9.916;2023-11-19T07:57:24;52.33;;;10.63;;
17796;SDS011;55596;53.554;9.916;2023-11-19T07:59:55;52.57;;;10.17;;
17796;SDS011;55596;53.554;9.916;2023-11-19T08:02:23;45.20;;;9.43;;
17796;SDS011;55596;53.554;9.916;2023-11-19T08:04:50;44.57;;;8.90;;
17796;SDS011;55596;53.554;9.916;2023-11-19T08:07:20;56.13;;;9.20;;
17796;SDS011;55596;53.554;9.916;2023-11-19T08:09:47;54.87;;;8.97;;
17796;SDS011;55596;53.554;9.916;2023-11-19T08:12:15;63.57;;;10.27;;
17796;SDS011;55596;53.554;9.916;2023-11-19T08:14:43;44.77;;;8.80;;
17796;SDS011;55596;53.554;9.916;2023-11-19T08:17:10;60.90;;;9.00;;
17796;SDS011;55596;53.554;9.916;2023-11-19T08:19:37;46.47;;;10.17;;
17796;SDS011;55596;53.554;9.916;2023-11-19T08:22:04;55.53;;;9.33;;
17796;SDS011;55596;53.554;9.916;2023-11-19T08:24:31;50.10;;;9.30;;
17796;SDS011;55596;53.554;9.916;2023-11-19T08:26:58;60.20;;;8.60;;
17796;SDS011;55596;53.554;9.916;2023-11-19T08:29:27;46.47;;;7.60;;
17796;SDS011;55596;53.554;9.916;2023-11-19T08:31:54;42.17;;;8.03;;
17796;SDS011;55596;53.554;9.916;2023-11-19T08:34:21;51.67;;;8.17;;
17796;SDS011;55596;53.554;9.916;2023-11-19T08:36:49;51.87;;;7.80;;
17796;SDS011;55596;53.554;9.916;2023-11-19T08:39:18;49.23;;;7.17;;
17796;SDS011;55596;53.554;9.916;2023-11-19T08:41:46;50.40;;;7.97;;
17796;SDS011;55596;53.554;9.916;2023-11-19T08:44:13;57.10;;;9.10;;
17796;SDS011;55596;53.554;9.916;2023-11-19T08:46:47;54.07;;;8.30;;
17796;SDS011;55596;53.554;9.916;2023-11-19T08:49:14;42.67;;;7.97;;
17796;SDS011;55596;53.554;9.916;2023-11-19T08:51:41;56.40;;;8.40;;
17796;SDS011;55596;53.554;9.916;2023-11-19T08:54:09;50.20;;;8.43;;
17796;SDS011;55596;53.554;9.916;2023-11-19T08:56:37;55.53;;;8.10;;
17796;SDS011;55596;53.554;9.916;2023-11-19T08:59:05;50.87;;;8.17;;
17796;SDS011;55596;53.554;9.916;2023-11-19T09:01:32;47.83;;;8.83;;
17796;SDS011;55596;53.554;9.916;2023-11-19T09:04:00;50.67;;;8.50;;
17796;SDS011;55596;53.554;9.916;2023-11-19T09:06:27;47.77;;;8.60;;
17796;SDS011;55596;53.554;9.916;2023-11-19T09:08:55;53.23;;;8.13;;
17796;SDS011;55596;53.554;9.916;2023-11-19T09:11:28;49.27;;;8.83;;
17796;SDS011;55596;53.554;9.916;2023-11-19T09:13:55;47.60;;;7.43;;
17796;SDS011;55596;53.554;9.916;2023-11-19T09:16:23;40.10;;;7.43;;
17796;SDS011;55596;53.554;9.916;2023-11-19T09:18:50;46.47;;;8.73;;
17796;SDS011;55596;53.554;9.916;2023-11-19T09:21:19;40.37;;;7.00;;
17796;SDS011;55596;53.554;9.916;2023-11-19T09:23:57;41.27;;;7.30;;
17796;SDS011;55596;53.554;9.916;2023-11-19T09:26:27;41.13;;;7.67;;
17796;SDS011;55596;53.554;9.916;2023-11-19T09:28:54;40.00;;;7.47;;
17796;SDS011;55596;53.554;9.916;2023-11-19T09:31:21;41.87;;;7.53;;
17796;SDS011;55596;53.554;9.916;2023-11-19T09:33:49;33.80;;;7.37;;
17796;SDS011;55596;53.554;9.916;2023-11-19T09:36:16;41.30;;;7.43;;
17796;SDS011;55596;53.554;9.916;2023-11-19T09:38:45;33.93;;;6.53;;
17796;SDS011;55596;53.554;9.916;2023-11-19T09:41:12;43.13;;;7.43;;
17796;SDS011;55596;53.554;9.916;2023-11-19T09:43:40;37.37;;;7.30;;
17796;SDS011;55596;53.554;9.916;2023-11-19T09:46:09;33.50;;;6.93;;
17796;SDS011;55596;53.554;9.916;2023-11-19T09:48:37;45.90;;;7.47;;
17796;SDS011;55596;53.554;9.916;2023-11-19T09:51:06;40.23;;;6.90;;
17796;SDS011;55596;53.554;9.916;2023-11-19T09:53:33;38.60;;;6.63;;
17796;SDS011;55596;53.554;9.916;2023-11-19T09:56:02;41.43;;;7.03;;
17796;SDS011;55596;53.554;9.916;2023-11-19T09:58:30;47.90;;;7.70;;
17796;SDS011;55596;53.554;9.916;2023-11-19T10:00:58;53.87;;;8.17;;
17796;SDS011;55596;53.554;9.916;2023-11-19T10:03:28;46.40;;;8.83;;
17796;SDS011;55596;53.554;9.916;2023-11-19T10:05:59;46.60;;;7.77;;
17796;SDS011;55596;53.554;9.916;2023-11-19T10:08:27;46.03;;;7.13;;
17796;SDS011;55596;53.554;9.916;2023-11-19T10:10:55;38.37;;;6.67;;
17796;SDS011;55596;53.554;9.916;2023-11-19T10:13:27;47.63;;;7.73;;
17796;SDS011;55596;53.554;9.916;2023-11-19T10:15:55;50.33;;;9.70;;
17796;SDS011;55596;53.554;9.916;2023-11-19T10:18:24;44.53;;;7.50;;
17796;SDS011;55596;53.554;9.916;2023-11-19T10:20:51;30.67;;;6.97;;
17796;SDS011;55596;53.554;9.916;2023-11-19T10:23:20;43.87;;;7.40;;
17796;SDS011;55596;53.554;9.916;2023-11-19T10:25:47;43.17;;;7.27;;
17796;SDS011;55596;53.554;9.916;2023-11-19T10:28:15;43.53;;;7.60;;
17796;SDS011;55596;53.554;9.916;2023-11-19T10:30:44;46.73;;;7.20;;
17796;SDS011;55596;53.554;9.916;2023-11-19T10:33:11;37.87;;;7.20;;
17796;SDS011;55596;53.554;9.916;2023-11-19T10:35:51;45.17;;;7.80;;
17796;SDS011;55596;53.554;9.916;2023-11-19T10:38:19;46.03;;;7.30;;
17796;SDS011;55596;53.554;9.916;2023-11-19T10:40:47;57.70;;;8.13;;
17796;SDS011;55596;53.554;9.916;2023-11-19T10:43:16;44.17;;;7.47;;
17796;SDS011;55596;53.554;9.916;2023-11-19T10:45:44;48.27;;;8.57;;
17796;SDS011;55596;53.554;9.916;2023-11-19T10:48:12;39.77;;;7.67;;
17796;SDS011;55596;53.554;9.916;2023-11-19T10:50:40;47.83;;;8.30;;
17796;SDS011;55596;53.554;9.916;2023-11-19T10:53:10;47.10;;;7.67;;
17796;SDS011;55596;53.554;9.916;2023-11-19T10:55:39;38.83;;;6.47;;
17796;SDS011;55596;53.554;9.916;2023-11-19T10:58:06;39.43;;;7.70;;
17796;SDS011;55596;53.554;9.916;2023-11-19T11:00:36;44.37;;;7.73;;
17796;SDS011;55596;53.554;9.916;2023-11-19T11:03:08;46.07;;;8.13;;
17796;SDS011;55596;53.554;9.916;2023-11-19T11:05:36;36.60;;;7.33;;
17796;SDS011;55596;53.554;9.916;2023-11-19T11:08:05;47.87;;;8.70;;
17796;SDS011;55596;53.554;9.916;2023-11-19T11:10:35;41.73;;;7.93;;
17796;SDS011;55596;53.554;9.916;2023-11-19T11:13:06;53.60;;;7.90;;
17796;SDS011;55596;53.554;9.916;2023-11-19T11:15:33;44.57;;;7.73;;
17796;SDS011;55596;53.554;9.916;2023-11-19T11:18:01;48.07;;;7.80;;
17796;SDS011;55596;53.554;9.916;2023-11-19T11:20:31;48.23;;;8.00;;
17796;SDS011;55596;53.554;9.916;2023-11-19T11:23:04;38.90;;;6.80;;
17796;SDS011;55596;53.554;9.916;2023-11-19T11:25:35;44.67;;;7.63;;
17796;SDS011;55596;53.554;9.916;2023-11-19T11:28:18;44.73;;;7.53;;
17796;SDS011;55596;53.554;9.916;2023-11-19T11:30:52;51.83;;;8.30;;
17796;SDS011;55596;53.554;9.916;2023-11-19T11:33:28;45.93;;;7.43;;
17796;SDS011;55596;53.554;9.916;2023-11-19T11:36:02;46.00;;;7.77;;
17796;SDS011;55596;53.554;9.916;2023-11-19T11:38:34;43.17;;;7.87;;
17796;SDS011;55596;53.554;9.916;2023-11-19T11:41:16;47.20;;;7.87;;
17796;SDS011;55596;53.554;9.916;2023-11-19T11:43:45;47.30;;;7.73;;
17796;SDS011;55596;53.554;9.916;2023-11-19T11:48:54;37.43;;;6.90;;
17796;SDS011;55596;53.554;9.916;2023-11-19T11:51:29;43.13;;;6.83;;
17796;SDS011;55596;53.554;9.916;2023-11-19T11:54:26;48.50;;;7.80;;
17796;SDS011;55596;53.554;9.916;2023-11-19T11:57:06;42.10;;;7.50;;
17796;SDS011;55596;53.554;9.916;2023-11-19T11:59:41;36.80;;;7.43;;
17796;SDS011;55596;53.554;9.916;2023-11-19T12:02:10;38.87;;;6.83;;
17796;SDS011;55596;53.554;9.916;2023-11-19T12:04:39;38.57;;;6.63;;
17796;SDS011;55596;53.554;9.916;2023-11-19T12:07:06;32.87;;;6.87;;
17796;SDS011;55596;53.554;9.916;2023-11-19T12:09:39;27.87;;;6.03;;
17796;SDS011;55596;53.554;9.916;2023-11-19T12:12:13;34.57;;;6.07;;
17796;SDS011;55596;53.554;9.916;2023-11-19T12:15:00;35.77;;;6.47;;
17796;SDS011;55596;53.554;9.916;2023-11-19T12:17:36;33.70;;;6.80;;
17796;SDS011;55596;53.554;9.916;2023-11-19T12:20:05;37.63;;;6.87;;
17796;SDS011;55596;53.554;9.916;2023-11-19T12:22:34;39.10;;;7.07;;
17796;SDS011;55596;53.554;9.916;2023-11-19T12:25:03;34.73;;;6.47;;
17796;SDS011;55596;53.554;9.916;2023-11-19T12:27:31;31.43;;;6.13;;
17796;SDS011;55596;53.554;9.916;2023-11-19T12:29:59;33.23;;;6.17;;
17796;SDS011;55596;53.554;9.916;2023-11-19T12:32:37;34.63;;;6.27;;
17796;SDS011;55596;53.554;9.916;2023-11-19T12:35:13;33.20;;;6.20;;
17796;SDS011;55596;53.554;9.916;2023-11-19T12:37:41;35.13;;;6.77;;
17796;SDS011;55596;53.554;9.916;2023-11-19T12:40:14;32.60;;;6.50;;
17796;SDS011;55596;53.554;9.916;2023-11-19T12:42:42;34.53;;;6.20;;
17796;SDS011;55596;53.554;9.916;2023-11-19T12:45:09;29.70;;;5.47;;
17796;SDS011;55596;53.554;9.916;2023-11-19T12:47:37;33.57;;;6.67;;
17796;SDS011;55596;53.554;9.916;2023-11-19T12:50:06;37.30;;;6.10;;
17796;SDS011;55596;53.554;9.916;2023-11-19T12:52:34;31.40;;;6.47;;
17796;SDS011;55596;53.554;9.916;2023-11-19T12:55:01;42.80;;;7.70;;
17796;SDS011;55596;53.554;9.916;2023-11-19T12:57:41;35.00;;;7.13;;
17796;SDS011;55596;53.554;9.916;2023-11-19T13:00:17;27.70;;;6.10;;
17796;SDS011;55596;53.554;9.916;2023-11-19T13:02:47;33.87;;;6.53;;
17796;SDS011;55596;53.554;9.916;2023-11-19T13:05:21;26.50;;;5.83;;
17796;SDS011;55596;53.554;9.916;2023-11-19T13:07:49;29.63;;;6.13;;
17796;SDS011;55596;53.554;9.916;2023-11-19T13:10:16;39.17;;;6.93;;
17796;SDS011;55596;53.554;9.916;2023-11-19T13:12:45;32.80;;;6.50;;
17796;SDS011;55596;53.554;9.916;2023-11-19T13:15:26;32.77;;;6.53;;
17796;SDS011;55596;53.554;9.916;2023-11-19T13:17:54;32.27;;;6.03;;
17796;SDS011;55596;53.554;9.916;2023-11-19T13:20:21;26.87;;;5.97;;
17796;SDS011;55596;53.554;9.916;2023-11-19T13:22:57;33.00;;;6.50;;
17796;SDS011;55596;53.554;9.916;2023-11-19T13:25:25;29.17;;;6.23;;
17796;SDS011;55596;53.554;9.916;2023-11-19T13:27:54;30.23;;;6.30;;
17796;SDS011;55596;53.554;9.916;2023-11-19T13:30:21;30.63;;;6.93;;
17796;SDS011;55596;53.554;9.916;2023-11-19T13:32:49;26.87;;;5.93;;
17796;SDS011;55596;53.554;9.916;2023-11-19T13:35:17;34.50;;;6.47;;
17796;SDS011;55596;53.554;9.916;2023-11-19T13:37:44;31.53;;;6.70;;
17796;SDS011;55596;53.554;9.916;2023-11-19T13:40:12;30.73;;;6.20;;
17796;SDS011;55596;53.554;9.916;2023-11-19T13:42:40;37.13;;;7.33;;
17796;SDS011;55596;53.554;9.916;2023-11-19T13:45:09;28.23;;;5.90;;
17796;SDS011;55596;53.554;9.916;2023-11-19T13:47:38;30.30;;;6.00;;
17796;SDS011;55596;53.554;9.916;2023-11-19T13:50:08;32.57;;;6.17;;
17796;SDS011;55596;53.554;9.916;2023-11-19T13:52:36;35.57;;;6.17;;
17796;SDS011;55596;53.554;9.916;2023-11-19T13:55:07;31.10;;;6.27;;
17796;SDS011;55596;53.554;9.916;2023-11-19T13:57:35;36.67;;;6.30;;
17796;SDS011;55596;53.554;9.916;2023-11-19T14:00:03;31.53;;;6.07;;
17796;SDS011;55596;53.554;9.916;2023-11-19T14:02:33;34.80;;;6.93;;
17796;SDS011;55596;53.554;9.916;2023-11-19T14:05:01;33.17;;;5.67;;
17796;SDS011;55596;53.554;9.916;2023-11-19T14:07:28;35.90;;;6.97;;
17796;SDS011;55596;53.554;9.916;2023-11-19T14:09:55;29.60;;;6.60;;
17796;SDS011;55596;53.554;9.916;2023-11-19T14:12:23;33.33;;;6.67;;
17796;SDS011;55596;53.554;9.916;2023-11-19T14:14:50;39.03;;;6.47;;
17796;SDS011;55596;53.554;9.916;2023-11-19T14:17:17;30.03;;;5.93;;
17796;SDS011;55596;53.554;9.916;2023-11-19T14:19:46;29.73;;;5.80;;
17796;SDS011;55596;53.554;9.916;2023-11-19T14:22:13;32.23;;;6.33;;
17796;SDS011;55596;53.554;9.916;2023-11-19T14:24:40;40.47;;;5.57;;
17796;SDS011;55596;53.554;9.916;2023-11-19T14:27:08;34.93;;;6.63;;
17796;SDS011;55596;53.554;9.916;2023-11-19T14:29:35;47.00;;;6.87;;
17796;SDS011;55596;53.554;9.916;2023-11-19T14:32:03;33.20;;;6.27;;
17796;SDS011;55596;53.554;9.916;2023-11-19T14:34:30;35.60;;;6.77;;
17796;SDS011;55596;53.554;9.916;2023-11-19T14:36:59;26.80;;;5.43;;
17796;SDS011;55596;53.554;9.916;2023-11-19T14:39:27;49.83;;;6.27;;
17796;SDS011;55596;53.554;9.916;2023-11-19T14:41:56;35.10;;;6.50;;
17796;SDS011;55596;53.554;9.916;2023-11-19T14:44:26;41.10;;;6.87;;